createdAt,value
2022-12-13T00:01:57.579Z,-1.20
2022-12-13T00:04:25.256Z,-1.30
2022-12-13T00:06:55.170Z,-1.30
2022-12-13T00:09:22.634Z,-1.30
2022-12-13T00:11:50.488Z,-1.30
2022-12-13T00:14:17.468Z,-1.40
2022-12-13T00:16:50.875Z,-1.40
2022-12-13T00:19:18.657Z,-1.40
2022-12-13T00:21:45.476Z,-1.50
2022-12-13T00:24:15.644Z,-1.40
2022-12-13T00:26:42.571Z,-1.40
2022-12-13T00:31:59.294Z,-1.50
2022-12-13T00:34:27.535Z,-1.50
2022-12-13T00:36:55.336Z,-1.50
2022-12-13T00:39:22.476Z,-1.50
2022-12-13T00:41:49.322Z,-1.60
2022-12-13T00:44:18.690Z,-1.60
2022-12-13T00:46:53.257Z,-1.60
2022-12-13T00:49:23.725Z,-1.60
2022-12-13T00:51:50.478Z,-1.60
2022-12-13T00:54:26.592Z,-1.60
2022-12-13T00:56:53.323Z,-1.70
2022-12-13T00:59:20.223Z,-1.70
2022-12-13T01:01:47.346Z,-1.70
2022-12-13T01:04:17.174Z,-1.70
2022-12-13T01:06:46.073Z,-1.80
2022-12-13T01:09:19.337Z,-1.80
2022-12-13T01:11:47.009Z,-1.80
2022-12-13T01:14:14.114Z,-1.80
2022-12-13T01:16:44.305Z,-1.80
2022-12-13T01:19:11.096Z,-1.80
2022-12-13T01:21:37.875Z,-1.80
2022-12-13T01:24:08.434Z,-1.90
2022-12-13T01:26:35.397Z,-1.90
2022-12-13T01:29:04.859Z,-1.90
2022-12-13T01:31:32.311Z,-1.90
2022-12-13T01:34:10.402Z,-1.90
2022-12-13T01:36:38.438Z,-2.00
2022-12-13T01:39:14.868Z,-1.90
2022-12-13T01:41:46.628Z,-2.00
2022-12-13T01:44:54.137Z,-2.00
2022-12-13T01:47:29.720Z,-2.00
2022-12-13T01:50:02.239Z,-2.00
2022-12-13T01:52:31.633Z,-2.10
2022-12-13T01:55:03.200Z,-2.10
2022-12-13T01:57:45.593Z,-2.10
2022-12-13T02:00:16.666Z,-2.10
2022-12-13T02:02:47.061Z,-2.10
2022-12-13T02:05:34.780Z,-2.10
2022-12-13T02:08:02.524Z,-2.20
2022-12-13T02:10:31.050Z,-2.20
2022-12-13T02:12:59.125Z,-2.20
2022-12-13T02:15:33.923Z,-2.10
2022-12-13T02:18:23.144Z,-2.20
2022-12-13T02:21:04.436Z,-2.30
2022-12-13T02:23:37.136Z,-2.30
2022-12-13T02:26:38.504Z,-2.30
2022-12-13T02:29:31.071Z,-2.30
2022-12-13T02:32:13.308Z,-2.30
2022-12-13T02:34:47.183Z,-2.30
2022-12-13T02:37:29.743Z,-2.40
2022-12-13T02:40:14.262Z,-2.40
2022-12-13T02:43:01.647Z,-2.40
2022-12-13T02:45:46.728Z,-2.40
2022-12-13T02:48:17.332Z,-2.40
2022-12-13T02:50:45.219Z,-2.50
2022-12-13T02:53:14.020Z,-2.50
2022-12-13T02:55:43.835Z,-2.50
2022-12-13T02:58:26.319Z,-2.50
2022-12-13T03:01:28.106Z,-2.50
2022-12-13T03:04:06.451Z,-2.50
2022-12-13T03:07:03.647Z,-2.60
2022-12-13T03:09:56.939Z,-2.60
2022-12-13T03:13:08.998Z,-2.60
2022-12-13T03:15:52.047Z,-2.60
2022-12-13T03:18:22.417Z,-2.60
2022-12-13T03:20:58.416Z,-2.70
2022-12-13T03:23:29.280Z,-2.70
2022-12-13T03:26:01.013Z,-2.70
2022-12-13T03:28:27.890Z,-2.70
2022-12-13T03:30:57.837Z,-2.70
2022-12-13T03:33:24.847Z,-2.70
2022-12-13T03:35:51.702Z,-2.80
2022-12-13T03:38:23.344Z,-2.80
2022-12-13T03:40:53.997Z,-2.80
2022-12-13T03:43:22.323Z,-2.90
2022-12-13T03:45:50.863Z,-2.80
2022-12-13T03:48:22.465Z,-2.80
2022-12-13T03:50:53.776Z,-2.80
2022-12-13T03:53:32.574Z,-2.80
2022-12-13T03:56:07.612Z,-2.90
2022-12-13T03:58:37.635Z,-2.90
2022-12-13T04:01:19.058Z,-2.90
2022-12-13T04:03:46.996Z,-2.90
2022-12-13T04:06:22.407Z,-2.90
2022-12-13T04:08:52.022Z,-3.00
2022-12-13T04:11:43.132Z,-3.00
2022-12-13T04:14:22.502Z,-3.00
2022-12-13T04:16:51.422Z,-3.00
2022-12-13T04:19:23.446Z,-3.10
2022-12-13T04:21:54.387Z,-3.00
2022-12-13T04:24:31.602Z,-3.00
2022-12-13T04:27:02.067Z,-3.10
2022-12-13T04:29:34.205Z,-3.10
2022-12-13T04:32:02.364Z,-3.10
2022-12-13T04:34:34.958Z,-3.00
2022-12-13T04:37:03.788Z,-3.10
2022-12-13T04:39:34.102Z,-3.10
2022-12-13T04:42:01.438Z,-3.20
2022-12-13T04:44:31.459Z,-3.20
2022-12-13T04:47:02.758Z,-3.20
2022-12-13T04:49:38.859Z,-3.20
2022-12-13T04:52:08.296Z,-3.20
2022-12-13T04:54:37.829Z,-3.30
2022-12-13T04:57:10.046Z,-3.30
2022-12-13T04:59:37.395Z,-3.30
2022-12-13T05:02:05.357Z,-3.30
2022-12-13T05:04:35.788Z,-3.30
2022-12-13T05:07:05.655Z,-3.30
2022-12-13T05:09:38.634Z,-3.40
2022-12-13T05:12:05.467Z,-3.40
2022-12-13T05:14:49.140Z,-3.40
2022-12-13T05:17:16.052Z,-3.40
2022-12-13T05:19:42.830Z,-3.40
2022-12-13T05:22:20.836Z,-3.30
2022-12-13T05:24:48.630Z,-3.50
2022-12-13T05:27:23.667Z,-3.60
2022-12-13T05:30:03.369Z,-3.50
2022-12-13T05:32:43.895Z,-3.50
2022-12-13T05:35:23.027Z,-3.50
2022-12-13T05:37:54.121Z,-3.50
2022-12-13T05:40:25.574Z,-3.60
2022-12-13T05:43:01.293Z,-3.60
2022-12-13T05:45:29.493Z,-3.60
2022-12-13T05:47:58.924Z,-3.60
2022-12-13T05:50:28.448Z,-3.60
2022-12-13T05:52:55.115Z,-3.60
2022-12-13T05:55:27.911Z,-3.60
2022-12-13T06:00:41.568Z,-3.70
2022-12-13T06:03:08.334Z,-3.70
2022-12-13T06:05:40.453Z,-3.70
2022-12-13T06:08:24.442Z,-3.70
2022-12-13T06:11:11.045Z,-3.70
2022-12-13T06:13:45.659Z,-3.80
2022-12-13T06:16:22.250Z,-3.80
2022-12-13T06:18:59.056Z,-3.80
2022-12-13T06:21:41.733Z,-3.80
2022-12-13T06:24:14.298Z,-3.80
2022-12-13T06:26:41.294Z,-3.80
2022-12-13T06:29:07.958Z,-3.80
2022-12-13T06:31:37.916Z,-3.90
2022-12-13T06:34:14.999Z,-4.00
2022-12-13T06:36:43.028Z,-3.90
2022-12-13T06:39:09.792Z,-3.90
2022-12-13T06:41:46.748Z,-3.90
2022-12-13T06:44:13.755Z,-3.90
2022-12-13T06:46:40.772Z,-3.90
2022-12-13T06:49:07.875Z,-4.00
2022-12-13T06:51:35.283Z,-4.00
2022-12-13T06:54:02.746Z,-4.00
2022-12-13T06:56:31.055Z,-4.00
2022-12-13T06:59:01.689Z,-4.00
2022-12-13T07:01:36.761Z,-4.00
2022-12-13T07:04:30.377Z,-4.10
2022-12-13T07:07:07.219Z,-4.10
2022-12-13T07:09:42.158Z,-4.10
2022-12-13T07:12:09.137Z,-4.10
2022-12-13T07:14:41.031Z,-4.10
2022-12-13T07:17:11.377Z,-4.20
2022-12-13T07:19:41.176Z,-4.20
2022-12-13T07:22:10.679Z,-4.20
2022-12-13T07:24:37.664Z,-4.20
2022-12-13T07:27:04.459Z,-4.20
2022-12-13T07:29:31.669Z,-4.20
2022-12-13T07:32:01.668Z,-4.20
2022-12-13T07:34:29.455Z,-4.20
2022-12-13T07:36:56.184Z,-4.20
2022-12-13T07:39:30.092Z,-4.30
2022-12-13T07:41:59.997Z,-4.30
2022-12-13T07:44:29.750Z,-4.20
2022-12-13T07:46:59.628Z,-4.30
2022-12-13T07:49:26.627Z,-4.20
2022-12-13T07:51:53.397Z,-4.30
2022-12-13T07:54:20.130Z,-4.30
2022-12-13T07:56:46.960Z,-4.20
2022-12-13T07:59:13.754Z,-4.30
2022-12-13T08:01:40.849Z,-4.30
2022-12-13T08:04:07.611Z,-4.40
2022-12-13T08:06:38.501Z,-4.30
2022-12-13T08:09:05.934Z,-4.40
2022-12-13T08:11:33.126Z,-4.30
2022-12-13T08:13:59.881Z,-4.40
2022-12-13T08:16:29.331Z,-4.20
2022-12-13T08:19:01.574Z,-4.40
2022-12-13T08:21:58.503Z,-4.40
2022-12-13T08:24:32.060Z,-4.40
2022-12-13T08:27:01.540Z,-4.20
2022-12-13T08:29:34.288Z,-4.40
2022-12-13T08:32:12.779Z,-4.20
2022-12-13T08:34:42.672Z,-4.40
2022-12-13T08:37:09.827Z,-4.40
2022-12-13T08:39:38.385Z,-4.30
2022-12-13T08:42:15.825Z,-4.30
2022-12-13T08:44:57.279Z,-4.40
2022-12-13T08:47:27.202Z,-4.40
2022-12-13T08:50:03.991Z,-4.40
2022-12-13T08:52:39.148Z,-4.40
2022-12-13T08:55:10.070Z,-4.30
2022-12-13T08:57:37.450Z,-4.40
2022-12-13T09:00:05.919Z,-4.30
2022-12-13T09:02:37.968Z,-4.30
2022-12-13T09:05:07.293Z,-4.30
2022-12-13T09:07:43.602Z,-4.30
2022-12-13T09:10:26.962Z,-4.30
2022-12-13T09:13:01.472Z,-4.30
2022-12-13T09:15:34.672Z,-4.20
2022-12-13T09:18:04.297Z,-4.20
2022-12-13T09:20:41.650Z,-4.20
2022-12-13T09:23:13.884Z,-4.20
2022-12-13T09:26:05.636Z,-4.20
2022-12-13T09:28:35.150Z,-4.10
2022-12-13T09:31:06.652Z,-4.10
2022-12-13T09:33:41.417Z,-4.10
2022-12-13T09:36:13.311Z,-4.10
2022-12-13T09:38:40.080Z,-4.00
2022-12-13T09:41:20.416Z,-4.00
2022-12-13T09:44:07.200Z,-3.90
2022-12-13T09:46:55.479Z,-3.90
2022-12-13T09:49:40.940Z,-3.90
2022-12-13T09:52:21.460Z,-3.80
2022-12-13T09:54:53.724Z,-3.80
2022-12-13T09:57:30.823Z,-3.80
2022-12-13T10:00:08.344Z,-3.70
2022-12-13T10:02:43.137Z,-3.70
2022-12-13T10:05:35.702Z,-3.50
2022-12-13T10:08:24.201Z,-3.60
2022-12-13T10:10:53.180Z,-3.60
2022-12-13T10:13:41.978Z,-3.60
2022-12-13T10:16:36.253Z,-3.50
2022-12-13T10:19:28.354Z,-3.50
2022-12-13T10:22:02.185Z,-3.40
2022-12-13T10:25:00.325Z,-3.30
2022-12-13T10:27:40.855Z,-3.30
2022-12-13T10:30:20.583Z,-3.30
2022-12-13T10:33:07.283Z,-3.20
2022-12-13T10:35:38.595Z,-3.10
2022-12-13T10:38:17.830Z,-3.10
2022-12-13T10:40:49.193Z,-3.00
2022-12-13T10:43:22.068Z,-3.00
2022-12-13T10:46:01.254Z,-2.90
2022-12-13T10:48:53.186Z,-2.80
2022-12-13T10:51:21.847Z,-2.80
2022-12-13T10:54:00.648Z,-2.70
2022-12-13T10:56:39.336Z,-2.60
2022-12-13T10:59:18.457Z,-2.60
2022-12-13T11:01:45.388Z,-2.50
2022-12-13T11:04:28.495Z,-2.50
2022-12-13T11:06:57.263Z,-2.40
2022-12-13T11:09:39.194Z,-2.30
2022-12-13T11:12:16.331Z,-2.20
2022-12-13T11:15:06.772Z,-2.20
2022-12-13T11:17:41.697Z,-2.10
2022-12-13T11:20:19.804Z,-2.00
2022-12-13T11:22:49.472Z,-2.00
2022-12-13T11:25:26.829Z,-1.90
2022-12-13T11:28:26.670Z,-1.80
2022-12-13T11:31:16.096Z,-1.80
2022-12-13T11:34:08.208Z,-1.70
2022-12-13T11:37:10.525Z,-1.60
2022-12-13T11:39:41.641Z,-1.50
2022-12-13T11:42:28.804Z,-1.40
2022-12-13T11:45:22.348Z,-1.40
2022-12-13T11:48:07.770Z,-1.30
2022-12-13T11:50:43.162Z,-1.20
2022-12-13T11:53:19.067Z,-1.10
2022-12-13T11:55:58.081Z,-1.10
2022-12-13T11:59:02.924Z,-1.00
2022-12-13T12:02:17.104Z,-0.90
2022-12-13T12:05:00.019Z,-0.80
2022-12-13T12:08:20.949Z,-0.80
2022-12-13T12:11:17.193Z,-0.60
2022-12-13T12:14:00.506Z,-0.60
2022-12-13T12:16:42.141Z,-0.50
2022-12-13T12:19:18.200Z,-0.40
2022-12-13T12:22:17.479Z,-0.30
2022-12-13T12:25:02.389Z,-0.30
2022-12-13T12:27:36.743Z,-0.20
2022-12-13T12:30:07.626Z,-0.10
2022-12-13T12:32:54.347Z,-0.10
2022-12-13T12:35:46.627Z,0.00
2022-12-13T12:38:35.696Z,0.10
2022-12-13T12:41:28.892Z,0.20
2022-12-13T12:44:40.235Z,0.30
2022-12-13T12:47:41.818Z,0.40
2022-12-13T12:50:28.915Z,0.40
2022-12-13T12:53:14.079Z,0.50
2022-12-13T12:56:03.183Z,0.60
2022-12-13T12:58:40.215Z,0.70
2022-12-13T13:01:37.711Z,0.70
2022-12-13T13:04:14.182Z,0.80
2022-12-13T13:07:22.687Z,0.90
2022-12-13T13:09:55.404Z,1.00
2022-12-13T13:12:30.471Z,1.00
2022-12-13T13:15:03.247Z,1.10
2022-12-13T13:17:29.967Z,1.20
2022-12-13T13:20:25.001Z,1.20
2022-12-13T13:23:38.984Z,1.30
2022-12-13T13:28:42.933Z,1.40
2022-12-13T13:31:10.337Z,1.50
2022-12-13T13:33:50.219Z,1.50
2022-12-13T13:36:38.870Z,1.60
2022-12-13T13:39:17.549Z,1.70
2022-12-13T13:42:15.540Z,1.80
2022-12-13T13:44:45.524Z,1.80
2022-12-13T13:47:21.122Z,1.90
2022-12-13T13:50:15.991Z,1.90
2022-12-13T13:53:09.394Z,2.00
2022-12-13T13:56:29.804Z,2.00
2022-12-13T13:59:23.108Z,2.10
2022-12-13T14:02:17.184Z,2.20
2022-12-13T14:05:36.368Z,2.20
2022-12-13T14:08:52.106Z,2.30
2022-12-13T14:11:43.548Z,2.30
2022-12-13T14:14:50.013Z,2.40
2022-12-13T14:17:44.265Z,2.40
2022-12-13T14:20:44.914Z,2.50
2022-12-13T14:23:48.296Z,2.50
2022-12-13T14:26:31.920Z,2.50
2022-12-13T14:29:10.005Z,2.50
2022-12-13T14:31:41.934Z,2.60
2022-12-13T14:34:27.136Z,2.60
2022-12-13T14:37:03.767Z,2.60
2022-12-13T14:39:34.031Z,2.60
2022-12-13T14:42:04.021Z,2.60
2022-12-13T14:44:37.290Z,2.50
2022-12-13T14:47:06.610Z,2.50
2022-12-13T14:49:41.193Z,2.50
2022-12-13T14:52:26.627Z,2.50
2022-12-13T14:55:04.377Z,2.50
2022-12-13T14:57:33.231Z,2.40
2022-12-13T15:00:20.717Z,2.40
2022-12-13T15:02:53.265Z,2.40
2022-12-13T15:05:30.129Z,2.40
2022-12-13T15:07:59.875Z,2.30
2022-12-13T15:10:37.519Z,2.30
2022-12-13T15:13:04.972Z,2.20
2022-12-13T15:15:35.641Z,2.20
2022-12-13T15:18:18.303Z,2.20
2022-12-13T15:20:45.901Z,2.10
2022-12-13T15:23:31.428Z,2.10
2022-12-13T15:26:08.089Z,2.10
2022-12-13T15:28:41.516Z,2.00
2022-12-13T15:31:09.910Z,2.00
2022-12-13T15:33:44.073Z,1.90
2022-12-13T15:36:27.492Z,1.90
2022-12-13T15:38:57.130Z,1.80
2022-12-13T15:41:29.226Z,1.80
2022-12-13T15:44:10.162Z,1.80
2022-12-13T15:46:38.237Z,1.70
2022-12-13T15:49:18.025Z,1.70
2022-12-13T15:51:57.347Z,1.60
2022-12-13T15:54:24.815Z,1.60
2022-12-13T15:57:14.972Z,1.50
2022-12-13T15:59:44.217Z,1.50
2022-12-13T16:02:16.514Z,1.40
2022-12-13T16:04:43.445Z,1.40
2022-12-13T16:07:23.227Z,1.30
2022-12-13T16:09:52.699Z,1.30
2022-12-13T16:12:47.548Z,1.20
2022-12-13T16:15:51.297Z,1.20
2022-12-13T16:18:26.879Z,1.10
2022-12-13T16:20:54.695Z,1.10
2022-12-13T16:23:27.529Z,1.00
2022-12-13T16:25:55.267Z,1.00
2022-12-13T16:28:26.251Z,0.90
2022-12-13T16:30:53.214Z,0.90
2022-12-13T16:33:30.088Z,0.90
2022-12-13T16:35:57.255Z,0.80
2022-12-13T16:38:25.814Z,0.80
2022-12-13T16:40:55.939Z,0.70
2022-12-13T16:43:32.996Z,0.70
2022-12-13T16:47:11.502Z,0.60
2022-12-13T16:48:51.447Z,0.60
2022-12-13T16:51:18.625Z,0.50
2022-12-13T16:53:45.564Z,0.50
2022-12-13T16:56:16.242Z,0.50
2022-12-13T16:58:49.585Z,0.40
2022-12-13T17:01:20.819Z,0.40
2022-12-13T17:03:48.205Z,0.40
2022-12-13T17:06:18.924Z,0.30
2022-12-13T17:08:45.666Z,0.30
2022-12-13T17:11:17.799Z,0.20
2022-12-13T17:13:46.983Z,0.20
2022-12-13T17:16:16.386Z,0.20
2022-12-13T17:18:46.637Z,0.10
2022-12-13T17:21:13.314Z,0.10
2022-12-13T17:23:40.993Z,0.10
2022-12-13T17:26:12.104Z,0.00
2022-12-13T17:28:38.961Z,0.00
2022-12-13T17:31:16.443Z,-0.10
2022-12-13T17:33:44.379Z,-0.10
2022-12-13T17:36:13.133Z,-0.10
2022-12-13T17:38:47.685Z,-0.20
2022-12-13T17:41:15.832Z,-0.20
2022-12-13T17:43:43.829Z,-0.20
2022-12-13T17:46:19.172Z,-0.20
2022-12-13T17:48:46.365Z,-0.30
2022-12-13T17:51:14.484Z,-0.30
2022-12-13T17:53:42.848Z,-0.30
2022-12-13T17:56:12.279Z,-0.40
2022-12-13T17:58:39.217Z,-0.40
2022-12-13T18:01:21.489Z,-0.40
2022-12-13T18:03:56.486Z,-0.50
2022-12-13T18:06:25.355Z,-0.50
2022-12-13T18:08:52.115Z,-0.50
2022-12-13T18:11:36.050Z,-0.60
2022-12-13T18:14:05.760Z,-0.60
2022-12-13T18:16:37.483Z,-0.60
2022-12-13T18:19:07.903Z,-0.70
2022-12-13T18:21:35.588Z,-0.70
2022-12-13T18:24:02.838Z,-0.70
2022-12-13T18:26:29.727Z,-0.70
2022-12-13T18:28:56.436Z,-0.80
2022-12-13T18:31:24.937Z,-0.80
2022-12-13T18:33:54.967Z,-0.80
2022-12-13T18:36:24.631Z,-0.80
2022-12-13T18:38:52.228Z,-0.90
2022-12-13T18:41:22.304Z,-0.90
2022-12-13T18:43:55.558Z,-0.90
2022-12-13T18:46:22.416Z,-0.90
2022-12-13T18:48:49.300Z,-1.00
2022-12-13T18:51:16.174Z,-1.00
2022-12-13T18:53:43.159Z,-1.00
2022-12-13T18:56:18.341Z,-1.00
2022-12-13T18:58:52.778Z,-1.00
2022-12-13T19:01:22.299Z,-1.10
2022-12-13T19:03:49.548Z,-1.10
2022-12-13T19:06:25.760Z,-1.10
2022-12-13T19:08:55.658Z,-1.10
2022-12-13T19:11:28.174Z,-1.20
2022-12-13T19:13:55.693Z,-1.20
2022-12-13T19:16:23.710Z,-1.20
2022-12-13T19:18:50.494Z,-1.20
2022-12-13T19:21:21.908Z,-1.20
2022-12-13T19:23:57.563Z,-1.30
2022-12-13T19:26:29.239Z,-1.30
2022-12-13T19:28:57.914Z,-1.30
2022-12-13T19:31:30.528Z,-1.30
2022-12-13T19:33:59.517Z,-1.30
2022-12-13T19:36:26.257Z,-1.40
2022-12-13T19:38:56.715Z,-1.40
2022-12-13T19:41:23.810Z,-1.40
2022-12-13T19:43:52.991Z,-1.40
2022-12-13T19:46:20.385Z,-1.40
2022-12-13T19:48:47.995Z,-1.40
2022-12-13T19:51:15.066Z,-1.50
2022-12-13T19:53:50.826Z,-1.50
2022-12-13T19:56:19.909Z,-1.50
2022-12-13T19:58:52.705Z,-1.50
2022-12-13T20:01:19.903Z,-1.50
2022-12-13T20:03:49.319Z,-1.60
2022-12-13T20:06:22.252Z,-1.60
2022-12-13T20:08:49.811Z,-1.60
2022-12-13T20:11:20.629Z,-1.60
2022-12-13T20:13:48.733Z,-1.60
2022-12-13T20:16:19.660Z,-1.60
2022-12-13T20:18:47.198Z,-1.70
2022-12-13T20:21:17.501Z,-1.70
2022-12-13T20:23:49.068Z,-1.70
2022-12-13T20:26:23.123Z,-1.70
2022-12-13T20:28:53.319Z,-1.70
2022-12-13T20:31:23.044Z,-1.70
2022-12-13T20:33:57.759Z,-1.70
2022-12-13T20:36:27.193Z,-1.70
2022-12-13T20:38:59.865Z,-1.70
2022-12-13T20:41:31.724Z,-1.80
2022-12-13T20:43:59.931Z,-1.80
2022-12-13T20:46:28.259Z,-1.80
2022-12-13T20:48:56.273Z,-1.80
2022-12-13T20:51:25.908Z,-1.80
2022-12-13T20:53:54.043Z,-1.80
2022-12-13T20:56:26.902Z,-1.80
2022-12-13T20:59:07.660Z,-1.80
2022-12-13T21:01:38.956Z,-1.80
2022-12-13T21:04:07.384Z,-1.90
2022-12-13T21:06:42.366Z,-1.90
2022-12-13T21:09:13.254Z,-1.90
2022-12-13T21:11:45.747Z,-1.90
2022-12-13T21:14:23.161Z,-1.90
2022-12-13T21:16:55.835Z,-1.90
2022-12-13T21:19:39.946Z,-1.90
2022-12-13T21:22:08.017Z,-1.90
2022-12-13T21:24:34.944Z,-2.00
2022-12-13T21:27:04.688Z,-2.00
2022-12-13T21:29:33.705Z,-2.00
2022-12-13T21:32:00.776Z,-2.00
2022-12-13T21:34:27.596Z,-2.00
2022-12-13T21:36:54.578Z,-2.00
2022-12-13T21:39:31.203Z,-2.00
2022-12-13T21:41:58.188Z,-2.00
2022-12-13T21:44:27.543Z,-2.00
2022-12-13T21:47:12.000Z,-2.10
2022-12-13T21:49:39.574Z,-2.10
2022-12-13T21:52:06.331Z,-2.10
2022-12-13T21:54:36.369Z,-2.10
2022-12-13T21:57:24.655Z,-2.10
2022-12-13T21:59:54.663Z,-2.10
2022-12-13T22:02:21.475Z,-2.10
2022-12-13T22:04:49.755Z,-2.10
2022-12-13T22:07:20.153Z,-2.10
2022-12-13T22:09:50.660Z,-2.10
2022-12-13T22:12:39.047Z,-2.10
2022-12-13T22:15:12.227Z,-2.20
2022-12-13T22:17:40.010Z,-2.20
2022-12-13T22:20:12.469Z,-2.20
2022-12-13T22:22:44.421Z,-2.20
2022-12-13T22:25:11.445Z,-2.20
2022-12-13T22:27:41.319Z,-2.20
2022-12-13T22:30:11.579Z,-2.20
2022-12-13T22:32:38.509Z,-2.20
2022-12-13T22:35:13.017Z,-2.20
2022-12-13T22:37:43.026Z,-2.20
2022-12-13T22:40:10.874Z,-2.20
2022-12-13T22:42:37.863Z,-2.20
2022-12-13T22:45:05.959Z,-2.20
2022-12-13T22:47:35.942Z,-2.20
2022-12-13T22:50:08.821Z,-2.20
2022-12-13T22:52:35.794Z,-2.20
2022-12-13T22:55:05.667Z,-2.20
2022-12-13T22:57:32.631Z,-2.30
2022-12-13T22:59:59.307Z,-2.30
2022-12-13T23:02:26.401Z,-2.30
2022-12-13T23:04:53.412Z,-2.30
2022-12-13T23:07:22.282Z,-2.30
2022-12-13T23:09:48.984Z,-2.30
2022-12-13T23:12:34.249Z,-2.30
2022-12-13T23:15:01.238Z,-2.30
2022-12-13T23:17:28.189Z,-2.30
2022-12-13T23:19:54.953Z,-2.30
2022-12-13T23:22:24.515Z,-2.30
2022-12-13T23:24:54.881Z,-2.30
2022-12-13T23:27:25.273Z,-2.30
2022-12-13T23:29:52.160Z,-2.30
2022-12-13T23:32:19.329Z,-2.30
2022-12-13T23:34:46.065Z,-2.30
2022-12-13T23:37:15.511Z,-2.30
2022-12-13T23:39:45.504Z,-2.30
2022-12-13T23:42:12.235Z,-2.30
2022-12-13T23:44:39.175Z,-2.30
2022-12-13T23:47:06.186Z,-2.30
2022-12-13T23:49:33.119Z,-2.30
2022-12-13T23:52:06.397Z,-2.30
2022-12-13T23:54:33.179Z,-2.30
2022-12-13T23:57:00.143Z,-2.30
2022-12-13T23:59:28.037Z,-2.30
